sensor_id;sensor_type;location;lat;lon;timestamp;P1;durP1;ratioP1;P2;durP2;ratioP2
7479;SDS011;3781;42.272;22.658;2024-03-23T00:55:44;0.97;;;0.57;;
7479;SDS011;3781;42.272;22.658;2024-03-23T00:58:10;1.80;;;1.17;;
7479;SDS011;3781;42.272;22.658;2024-03-23T01:00:36;2.10;;;1.50;;
7479;SDS011;3781;42.272;22.658;2024-03-23T01:03:02;2.07;;;1.07;;
7479;SDS011;3781;42.272;22.658;2024-03-23T01:05:32;3.17;;;1.33;;
7479;SDS011;3781;42.272;22.658;2024-03-23T01:07:57;1.77;;;1.33;;
7479;SDS011;3781;42.272;22.658;2024-03-23T01:10:24;1.43;;;1.33;;
7479;SDS011;3781;42.272;22.658;2024-03-23T01:12:51;2.23;;;1.63;;
7479;SDS011;3781;42.272;22.658;2024-03-23T01:15:18;2.60;;;1.37;;
7479;SDS011;3781;42.272;22.658;2024-03-23T01:17:43;1.47;;;1.37;;
7479;SDS011;3781;42.272;22.658;2024-03-23T01:20:10;2.53;;;1.77;;
7479;SDS011;3781;42.272;22.658;2024-03-23T01:22:36;1.80;;;1.33;;
7479;SDS011;3781;42.272;22.658;2024-03-23T01:25:03;2.40;;;1.50;;
7479;SDS011;3781;42.272;22.658;2024-03-23T01:27:29;3.33;;;1.77;;
7479;SDS011;3781;42.272;22.658;2024-03-23T01:29:57;2.27;;;1.60;;
7479;SDS011;3781;42.272;22.658;2024-03-23T01:32:23;3.93;;;2.37;;
7479;SDS011;3781;42.272;22.658;2024-03-23T01:34:50;1.47;;;1.07;;
7479;SDS011;3781;42.272;22.658;2024-03-23T01:37:15;2.63;;;2.43;;
7479;SDS011;3781;42.272;22.658;2024-03-23T01:39:42;2.33;;;2.13;;
7479;SDS011;3781;42.272;22.658;2024-03-23T01:42:08;2.43;;;2.23;;
7479;SDS011;3781;42.272;22.658;2024-03-23T01:44:35;1.57;;;1.47;;
7479;SDS011;3781;42.272;22.658;2024-03-23T01:47:02;8.50;;;2.20;;
7479;SDS011;3781;42.272;22.658;2024-03-23T01:49:29;3.77;;;3.37;;
7479;SDS011;3781;42.272;22.658;2024-03-23T01:51:55;2.50;;;2.40;;
7479;SDS011;3781;42.272;22.658;2024-03-23T01:54:22;1.20;;;1.10;;
7479;SDS011;3781;42.272;22.658;2024-03-23T01:56:49;1.43;;;1.30;;
7479;SDS011;3781;42.272;22.658;2024-03-23T01:59:15;2.10;;;0.70;;
7479;SDS011;3781;42.272;22.658;2024-03-23T02:01:41;3.07;;;1.27;;
7479;SDS011;3781;42.272;22.658;2024-03-23T02:04:09;2.07;;;1.20;;
7479;SDS011;3781;42.272;22.658;2024-03-23T02:06:35;2.07;;;0.97;;
7479;SDS011;3781;42.272;22.658;2024-03-23T02:09:02;1.67;;;1.13;;
7479;SDS011;3781;42.272;22.658;2024-03-23T02:11:29;1.67;;;1.27;;
7479;SDS011;3781;42.272;22.658;2024-03-23T02:13:55;2.33;;;0.30;;
7479;SDS011;3781;42.272;22.658;2024-03-23T02:16:21;0.50;;;0.50;;
7479;SDS011;3781;42.272;22.658;2024-03-23T02:18:48;2.83;;;1.30;;
7479;SDS011;3781;42.272;22.658;2024-03-23T02:21:15;2.67;;;1.47;;
7479;SDS011;3781;42.272;22.658;2024-03-23T02:23:43;7.70;;;2.77;;
7479;SDS011;3781;42.272;22.658;2024-03-23T02:26:09;7.20;;;2.80;;
7479;SDS011;3781;42.272;22.658;2024-03-23T02:28:35;4.77;;;2.00;;
7479;SDS011;3781;42.272;22.658;2024-03-23T02:31:01;5.80;;;2.20;;
7479;SDS011;3781;42.272;22.658;2024-03-23T02:33:29;1.03;;;0.97;;
7479;SDS011;3781;42.272;22.658;2024-03-23T02:35:55;1.30;;;1.20;;
7479;SDS011;3781;42.272;22.658;2024-03-23T02:38:23;3.17;;;1.57;;
7479;SDS011;3781;42.272;22.658;2024-03-23T02:40:50;5.67;;;2.00;;
7479;SDS011;3781;42.272;22.658;2024-03-23T02:43:16;1.90;;;1.80;;
7479;SDS011;3781;42.272;22.658;2024-03-23T02:45:42;4.50;;;2.53;;
7479;SDS011;3781;42.272;22.658;2024-03-23T02:48:09;4.13;;;2.27;;
7479;SDS011;3781;42.272;22.658;2024-03-23T02:50:34;3.67;;;1.67;;
7479;SDS011;3781;42.272;22.658;2024-03-23T02:53:01;0.63;;;0.63;;
7479;SDS011;3781;42.272;22.658;2024-03-23T02:55:27;2.00;;;1.30;;
7479;SDS011;3781;42.272;22.658;2024-03-23T02:57:55;4.20;;;1.70;;
7479;SDS011;3781;42.272;22.658;2024-03-23T03:00:21;2.90;;;0.53;;
7479;SDS011;3781;42.272;22.658;2024-03-23T03:02:48;0.77;;;0.77;;
7479;SDS011;3781;42.272;22.658;2024-03-23T03:05:13;0.30;;;0.30;;
7479;SDS011;3781;42.272;22.658;2024-03-23T03:07:40;0.43;;;0.43;;
7479;SDS011;3781;42.272;22.658;2024-03-23T03:10:06;0.10;;;0.10;;
7479;SDS011;3781;42.272;22.658;2024-03-23T03:12:36;0.80;;;0.80;;
7479;SDS011;3781;42.272;22.658;2024-03-23T03:15:04;1.70;;;1.23;;
7479;SDS011;3781;42.272;22.658;2024-03-23T03:17:31;3.07;;;2.77;;
7479;SDS011;3781;42.272;22.658;2024-03-23T03:19:58;1.27;;;1.00;;
7479;SDS011;3781;42.272;22.658;2024-03-23T03:22:24;5.23;;;2.43;;
7479;SDS011;3781;42.272;22.658;2024-03-23T03:24:51;2.70;;;1.73;;
7479;SDS011;3781;42.272;22.658;2024-03-23T03:27:17;2.13;;;1.50;;
7479;SDS011;3781;42.272;22.658;2024-03-23T03:29:44;7.97;;;2.23;;
7479;SDS011;3781;42.272;22.658;2024-03-23T03:32:11;1.87;;;1.77;;
7479;SDS011;3781;42.272;22.658;2024-03-23T03:34:38;3.77;;;2.17;;
7479;SDS011;3781;42.272;22.658;2024-03-23T03:37:04;2.03;;;1.87;;
7479;SDS011;3781;42.272;22.658;2024-03-23T03:39:31;2.90;;;2.37;;
7479;SDS011;3781;42.272;22.658;2024-03-23T03:41:56;10.80;;;2.90;;
7479;SDS011;3781;42.272;22.658;2024-03-23T03:44:23;7.43;;;2.50;;
7479;SDS011;3781;42.272;22.658;2024-03-23T03:46:49;6.20;;;1.80;;
7479;SDS011;3781;42.272;22.658;2024-03-23T03:49:17;3.23;;;2.37;;
7479;SDS011;3781;42.272;22.658;2024-03-23T03:51:43;4.77;;;2.30;;
7479;SDS011;3781;42.272;22.658;2024-03-23T03:54:09;9.33;;;4.40;;
7479;SDS011;3781;42.272;22.658;2024-03-23T03:56:35;4.73;;;1.70;;
7479;SDS011;3781;42.272;22.658;2024-03-23T03:59:02;2.87;;;2.57;;
7479;SDS011;3781;42.272;22.658;2024-03-23T04:01:27;8.37;;;2.67;;
7479;SDS011;3781;42.272;22.658;2024-03-23T04:03:54;5.70;;;2.53;;
7479;SDS011;3781;42.272;22.658;2024-03-23T04:06:21;3.40;;;2.33;;
7479;SDS011;3781;42.272;22.658;2024-03-23T04:08:48;9.00;;;3.03;;
7479;SDS011;3781;42.272;22.658;2024-03-23T04:11:14;7.40;;;3.07;;
7479;SDS011;3781;42.272;22.658;2024-03-23T04:13:41;6.20;;;2.77;;
7479;SDS011;3781;42.272;22.658;2024-03-23T04:16:07;3.57;;;2.50;;
7479;SDS011;3781;42.272;22.658;2024-03-23T04:18:34;1.77;;;1.67;;
7479;SDS011;3781;42.272;22.658;2024-03-23T04:21:00;3.73;;;1.77;;
7479;SDS011;3781;42.272;22.658;2024-03-23T04:23:28;6.97;;;1.87;;
7479;SDS011;3781;42.272;22.658;2024-03-23T04:25:53;3.17;;;2.73;;
7479;SDS011;3781;42.272;22.658;2024-03-23T04:28:20;1.93;;;1.60;;
7479;SDS011;3781;42.272;22.658;2024-03-23T04:30:46;12.77;;;3.43;;
7479;SDS011;3781;42.272;22.658;2024-03-23T04:33:13;5.23;;;1.93;;
7479;SDS011;3781;42.272;22.658;2024-03-23T04:35:38;1.73;;;1.50;;
7479;SDS011;3781;42.272;22.658;2024-03-23T04:38:05;2.07;;;1.97;;
7479;SDS011;3781;42.272;22.658;2024-03-23T04:40:33;3.70;;;2.17;;
7479;SDS011;3781;42.272;22.658;2024-03-23T04:42:59;5.13;;;1.70;;
7479;SDS011;3781;42.272;22.658;2024-03-23T04:45:26;6.07;;;2.17;;
7479;SDS011;3781;42.272;22.658;2024-03-23T04:47:53;3.67;;;1.47;;
7479;SDS011;3781;42.272;22.658;2024-03-23T04:50:19;3.07;;;2.10;;
7479;SDS011;3781;42.272;22.658;2024-03-23T04:52:46;2.27;;;2.17;;
7479;SDS011;3781;42.272;22.658;2024-03-23T04:55:13;2.30;;;2.10;;
7479;SDS011;3781;42.272;22.658;2024-03-23T04:57:42;2.47;;;2.23;;
7479;SDS011;3781;42.272;22.658;2024-03-23T05:00:08;2.93;;;2.03;;
7479;SDS011;3781;42.272;22.658;2024-03-23T05:02:44;5.20;;;2.63;;
7479;SDS011;3781;42.272;22.658;2024-03-23T05:05:10;3.47;;;2.80;;
7479;SDS011;3781;42.272;22.658;2024-03-23T05:07:37;2.30;;;2.00;;
7479;SDS011;3781;42.272;22.658;2024-03-23T05:10:03;6.20;;;2.60;;
7479;SDS011;3781;42.272;22.658;2024-03-23T05:12:30;5.90;;;2.20;;
7479;SDS011;3781;42.272;22.658;2024-03-23T05:14:57;1.70;;;1.50;;
7479;SDS011;3781;42.272;22.658;2024-03-23T05:17:24;4.63;;;2.93;;
7479;SDS011;3781;42.272;22.658;2024-03-23T05:19:50;6.67;;;2.27;;
7479;SDS011;3781;42.272;22.658;2024-03-23T05:22:17;6.20;;;2.73;;
7479;SDS011;3781;42.272;22.658;2024-03-23T05:24:44;6.20;;;2.63;;
7479;SDS011;3781;42.272;22.658;2024-03-23T05:27:11;4.53;;;2.47;;
7479;SDS011;3781;42.272;22.658;2024-03-23T05:29:37;5.27;;;2.93;;
7479;SDS011;3781;42.272;22.658;2024-03-23T05:32:06;4.47;;;3.70;;
7479;SDS011;3781;42.272;22.658;2024-03-23T05:34:32;3.47;;;2.40;;
7479;SDS011;3781;42.272;22.658;2024-03-23T05:36:59;4.60;;;3.03;;
7479;SDS011;3781;42.272;22.658;2024-03-23T05:39:24;5.77;;;2.53;;
7479;SDS011;3781;42.272;22.658;2024-03-23T05:41:51;8.20;;;3.70;;
7479;SDS011;3781;42.272;22.658;2024-03-23T05:44:17;3.83;;;3.40;;
7479;SDS011;3781;42.272;22.658;2024-03-23T05:46:44;3.13;;;2.90;;
7479;SDS011;3781;42.272;22.658;2024-03-23T05:49:15;3.83;;;2.60;;
7479;SDS011;3781;42.272;22.658;2024-03-23T05:51:41;3.33;;;2.70;;
7479;SDS011;3781;42.272;22.658;2024-03-23T05:54:07;4.27;;;2.27;;
7479;SDS011;3781;42.272;22.658;2024-03-23T05:56:34;5.03;;;3.43;;
7479;SDS011;3781;42.272;22.658;2024-03-23T05:59:00;5.20;;;4.60;;
7479;SDS011;3781;42.272;22.658;2024-03-23T06:01:28;4.50;;;2.77;;
7479;SDS011;3781;42.272;22.658;2024-03-23T06:03:55;8.77;;;4.47;;
7479;SDS011;3781;42.272;22.658;2024-03-23T06:06:23;8.27;;;4.03;;
7479;SDS011;3781;42.272;22.658;2024-03-23T06:08:49;10.27;;;3.50;;
7479;SDS011;3781;42.272;22.658;2024-03-23T06:11:16;5.40;;;3.73;;
7479;SDS011;3781;42.272;22.658;2024-03-23T06:13:41;5.70;;;4.17;;
7479;SDS011;3781;42.272;22.658;2024-03-23T06:16:08;10.53;;;4.37;;
7479;SDS011;3781;42.272;22.658;2024-03-23T06:18:35;5.93;;;3.10;;
7479;SDS011;3781;42.272;22.658;2024-03-23T06:21:02;5.10;;;4.10;;
7479;SDS011;3781;42.272;22.658;2024-03-23T06:23:29;4.83;;;3.30;;
7479;SDS011;3781;42.272;22.658;2024-03-23T06:25:56;5.60;;;3.60;;
7479;SDS011;3781;42.272;22.658;2024-03-23T06:28:22;7.33;;;3.43;;
7479;SDS011;3781;42.272;22.658;2024-03-23T06:30:49;12.27;;;5.10;;
7479;SDS011;3781;42.272;22.658;2024-03-23T06:33:14;13.20;;;5.33;;
7479;SDS011;3781;42.272;22.658;2024-03-23T06:35:41;10.47;;;5.07;;
7479;SDS011;3781;42.272;22.658;2024-03-23T06:38:07;9.13;;;6.20;;
7479;SDS011;3781;42.272;22.658;2024-03-23T06:40:37;14.67;;;6.03;;
7479;SDS011;3781;42.272;22.658;2024-03-23T06:43:02;12.30;;;7.60;;
7479;SDS011;3781;42.272;22.658;2024-03-23T06:45:30;13.30;;;5.97;;
7479;SDS011;3781;42.272;22.658;2024-03-23T06:47:56;21.03;;;6.20;;
7479;SDS011;3781;42.272;22.658;2024-03-23T06:50:23;14.73;;;7.67;;
7479;SDS011;3781;42.272;22.658;2024-03-23T06:52:50;13.43;;;7.73;;
7479;SDS011;3781;42.272;22.658;2024-03-23T06:55:16;17.83;;;8.97;;
7479;SDS011;3781;42.272;22.658;2024-03-23T06:57:43;17.90;;;8.53;;
7479;SDS011;3781;42.272;22.658;2024-03-23T07:00:11;16.80;;;8.30;;
7479;SDS011;3781;42.272;22.658;2024-03-23T07:02:38;17.43;;;8.20;;
7479;SDS011;3781;42.272;22.658;2024-03-23T07:05:05;17.47;;;8.20;;
7479;SDS011;3781;42.272;22.658;2024-03-23T07:07:32;14.93;;;7.53;;
7479;SDS011;3781;42.272;22.658;2024-03-23T07:09:58;12.00;;;7.17;;
7479;SDS011;3781;42.272;22.658;2024-03-23T07:12:24;11.93;;;6.50;;
7479;SDS011;3781;42.272;22.658;2024-03-23T07:14:52;13.43;;;7.17;;
7479;SDS011;3781;42.272;22.658;2024-03-23T07:17:18;11.43;;;6.77;;
7479;SDS011;3781;42.272;22.658;2024-03-23T07:19:46;15.33;;;7.90;;
7479;SDS011;3781;42.272;22.658;2024-03-23T07:22:12;11.27;;;6.80;;
7479;SDS011;3781;42.272;22.658;2024-03-23T07:24:39;11.40;;;6.10;;
7479;SDS011;3781;42.272;22.658;2024-03-23T07:27:06;9.73;;;5.90;;
7479;SDS011;3781;42.272;22.658;2024-03-23T07:29:35;12.70;;;6.93;;
7479;SDS011;3781;42.272;22.658;2024-03-23T07:32:02;12.83;;;6.70;;
7479;SDS011;3781;42.272;22.658;2024-03-23T07:34:29;12.37;;;6.43;;
7479;SDS011;3781;42.272;22.658;2024-03-23T07:36:54;8.77;;;5.37;;
7479;SDS011;3781;42.272;22.658;2024-03-23T07:39:21;6.77;;;5.47;;
7479;SDS011;3781;42.272;22.658;2024-03-23T07:41:48;14.20;;;7.57;;
7479;SDS011;3781;42.272;22.658;2024-03-23T07:44:14;20.27;;;7.77;;
7479;SDS011;3781;42.272;22.658;2024-03-23T07:46:40;11.33;;;6.43;;
7479;SDS011;3781;42.272;22.658;2024-03-23T07:49:07;8.60;;;5.83;;
7479;SDS011;3781;42.272;22.658;2024-03-23T07:51:34;7.10;;;4.37;;
7479;SDS011;3781;42.272;22.658;2024-03-23T07:54:00;5.13;;;3.80;;
7479;SDS011;3781;42.272;22.658;2024-03-23T07:56:26;5.00;;;3.53;;
7479;SDS011;3781;42.272;22.658;2024-03-23T07:58:52;11.63;;;5.10;;
7479;SDS011;3781;42.272;22.658;2024-03-23T08:01:19;4.80;;;2.90;;
7479;SDS011;3781;42.272;22.658;2024-03-23T08:03:45;4.97;;;3.30;;
7479;SDS011;3781;42.272;22.658;2024-03-23T08:06:14;5.90;;;3.70;;
7479;SDS011;3781;42.272;22.658;2024-03-23T08:08:41;4.37;;;2.17;;
7479;SDS011;3781;42.272;22.658;2024-03-23T08:11:09;5.77;;;3.60;;
7479;SDS011;3781;42.272;22.658;2024-03-23T08:13:35;5.40;;;3.87;;
7479;SDS011;3781;42.272;22.658;2024-03-23T08:16:03;6.40;;;4.60;;
7479;SDS011;3781;42.272;22.658;2024-03-23T08:18:30;7.77;;;5.00;;
7479;SDS011;3781;42.272;22.658;2024-03-23T08:20:57;5.77;;;4.60;;
7479;SDS011;3781;42.272;22.658;2024-03-23T08:23:25;6.07;;;3.90;;
7479;SDS011;3781;42.272;22.658;2024-03-23T08:25:52;5.77;;;4.50;;
7479;SDS011;3781;42.272;22.658;2024-03-23T08:28:18;7.43;;;4.27;;
7479;SDS011;3781;42.272;22.658;2024-03-23T08:30:44;7.67;;;3.43;;
7479;SDS011;3781;42.272;22.658;2024-03-23T08:33:10;5.60;;;3.93;;
7479;SDS011;3781;42.272;22.658;2024-03-23T08:35:37;6.13;;;3.93;;
7479;SDS011;3781;42.272;22.658;2024-03-23T08:38:04;7.60;;;4.70;;
7479;SDS011;3781;42.272;22.658;2024-03-23T08:40:32;6.63;;;4.00;;
7479;SDS011;3781;42.272;22.658;2024-03-23T08:42:58;7.07;;;3.53;;
7479;SDS011;3781;42.272;22.658;2024-03-23T08:45:25;5.33;;;4.17;;
7479;SDS011;3781;42.272;22.658;2024-03-23T08:47:51;7.00;;;4.13;;
7479;SDS011;3781;42.272;22.658;2024-03-23T08:50:17;7.67;;;3.80;;
7479;SDS011;3781;42.272;22.658;2024-03-23T08:52:43;8.27;;;4.10;;
7479;SDS011;3781;42.272;22.658;2024-03-23T08:55:10;4.63;;;3.77;;
7479;SDS011;3781;42.272;22.658;2024-03-23T08:57:37;3.90;;;3.53;;
7479;SDS011;3781;42.272;22.658;2024-03-23T09:00:04;5.07;;;3.50;;
7479;SDS011;3781;42.272;22.658;2024-03-23T09:02:33;5.60;;;3.93;;
7479;SDS011;3781;42.272;22.658;2024-03-23T09:05:00;5.53;;;3.83;;
7479;SDS011;3781;42.272;22.658;2024-03-23T09:07:29;8.17;;;4.27;;
7479;SDS011;3781;42.272;22.658;2024-03-23T09:09:56;5.43;;;3.47;;
7479;SDS011;3781;42.272;22.658;2024-03-23T09:12:22;7.57;;;3.53;;
7479;SDS011;3781;42.272;22.658;2024-03-23T09:14:50;6.10;;;3.90;;
7479;SDS011;3781;42.272;22.658;2024-03-23T09:17:16;8.73;;;4.90;;
7479;SDS011;3781;42.272;22.658;2024-03-23T09:19:43;6.00;;;3.80;;
7479;SDS011;3781;42.272;22.658;2024-03-23T09:22:09;4.80;;;3.83;;
7479;SDS011;3781;42.272;22.658;2024-03-23T09:24:35;7.67;;;4.67;;
7479;SDS011;3781;42.272;22.658;2024-03-23T09:27:02;6.87;;;4.47;;
7479;SDS011;3781;42.272;22.658;2024-03-23T09:29:29;4.73;;;4.03;;
7479;SDS011;3781;42.272;22.658;2024-03-23T09:31:56;8.17;;;4.23;;
7479;SDS011;3781;42.272;22.658;2024-03-23T09:34:23;5.37;;;3.97;;
7479;SDS011;3781;42.272;22.658;2024-03-23T09:36:50;12.33;;;4.83;;
7479;SDS011;3781;42.272;22.658;2024-03-23T09:39:17;7.33;;;4.80;;
7479;SDS011;3781;42.272;22.658;2024-03-23T09:41:43;7.77;;;4.93;;
7479;SDS011;3781;42.272;22.658;2024-03-23T09:44:10;5.23;;;3.97;;
7479;SDS011;3781;42.272;22.658;2024-03-23T09:46:36;7.10;;;4.77;;
7479;SDS011;3781;42.272;22.658;2024-03-23T09:49:05;6.13;;;4.13;;
7479;SDS011;3781;42.272;22.658;2024-03-23T09:51:34;7.33;;;4.40;;
7479;SDS011;3781;42.272;22.658;2024-03-23T09:54:02;6.30;;;4.37;;
7479;SDS011;3781;42.272;22.658;2024-03-23T09:56:28;7.23;;;4.07;;
7479;SDS011;3781;42.272;22.658;2024-03-23T09:58:59;5.10;;;4.43;;
7479;SDS011;3781;42.272;22.658;2024-03-23T10:01:26;6.53;;;4.73;;
7479;SDS011;3781;42.272;22.658;2024-03-23T10:03:53;5.23;;;3.70;;
7479;SDS011;3781;42.272;22.658;2024-03-23T10:06:22;5.50;;;4.27;;
7479;SDS011;3781;42.272;22.658;2024-03-23T10:08:49;5.13;;;4.13;;
7479;SDS011;3781;42.272;22.658;2024-03-23T10:11:16;5.60;;;3.97;;
7479;SDS011;3781;42.272;22.658;2024-03-23T10:13:44;5.60;;;4.03;;
7479;SDS011;3781;42.272;22.658;2024-03-23T10:16:11;5.60;;;3.33;;
7479;SDS011;3781;42.272;22.658;2024-03-23T10:18:38;9.53;;;4.40;;
7479;SDS011;3781;42.272;22.658;2024-03-23T10:21:08;4.10;;;3.63;;
7479;SDS011;3781;42.272;22.658;2024-03-23T10:23:38;5.93;;;4.33;;
7479;SDS011;3781;42.272;22.658;2024-03-23T10:26:14;4.87;;;4.23;;
7479;SDS011;3781;42.272;22.658;2024-03-23T10:28:52;4.53;;;3.70;;
7479;SDS011;3781;42.272;22.658;2024-03-23T10:31:19;5.50;;;3.77;;
7479;SDS011;3781;42.272;22.658;2024-03-23T10:33:47;3.90;;;3.50;;
7479;SDS011;3781;42.272;22.658;2024-03-23T10:36:14;4.00;;;3.37;;
7479;SDS011;3781;42.272;22.658;2024-03-23T10:38:42;8.53;;;3.97;;
7479;SDS011;3781;42.272;22.658;2024-03-23T10:41:09;5.57;;;3.80;;
7479;SDS011;3781;42.272;22.658;2024-03-23T10:43:37;5.47;;;3.50;;
7479;SDS011;3781;42.272;22.658;2024-03-23T10:46:03;5.23;;;4.03;;
7479;SDS011;3781;42.272;22.658;2024-03-23T10:48:30;4.13;;;3.00;;
7479;SDS011;3781;42.272;22.658;2024-03-23T10:50:58;5.67;;;3.87;;
7479;SDS011;3781;42.272;22.658;2024-03-23T10:53:25;3.17;;;2.83;;
7479;SDS011;3781;42.272;22.658;2024-03-23T10:55:54;3.87;;;3.47;;
7479;SDS011;3781;42.272;22.658;2024-03-23T10:58:23;4.90;;;2.90;;
7479;SDS011;3781;42.272;22.658;2024-03-23T11:00:52;3.87;;;2.93;;
7479;SDS011;3781;42.272;22.658;2024-03-23T11:03:35;3.73;;;2.90;;
7479;SDS011;3781;42.272;22.658;2024-03-23T11:06:02;3.40;;;2.37;;
7479;SDS011;3781;42.272;22.658;2024-03-23T11:08:30;3.00;;;2.70;;
7479;SDS011;3781;42.272;22.658;2024-03-23T11:13:43;5.47;;;2.40;;
7479;SDS011;3781;42.272;22.658;2024-03-23T11:16:12;3.50;;;2.73;;
7479;SDS011;3781;42.272;22.658;2024-03-23T11:18:40;3.07;;;2.00;;
7479;SDS011;3781;42.272;22.658;2024-03-23T11:21:06;2.40;;;2.13;;
7479;SDS011;3781;42.272;22.658;2024-03-23T11:23:33;2.43;;;1.90;;
7479;SDS011;3781;42.272;22.658;2024-03-23T11:25:59;3.47;;;2.13;;
7479;SDS011;3781;42.272;22.658;2024-03-23T11:28:27;1.87;;;1.77;;
7479;SDS011;3781;42.272;22.658;2024-03-23T11:30:53;5.03;;;1.93;;
7479;SDS011;3781;42.272;22.658;2024-03-23T11:33:20;2.03;;;1.70;;
7479;SDS011;3781;42.272;22.658;2024-03-23T11:35:46;1.70;;;1.33;;
7479;SDS011;3781;42.272;22.658;2024-03-23T11:38:13;3.30;;;2.13;;
7479;SDS011;3781;42.272;22.658;2024-03-23T11:40:41;5.67;;;2.70;;
7479;SDS011;3781;42.272;22.658;2024-03-23T11:43:09;4.43;;;1.83;;
7479;SDS011;3781;42.272;22.658;2024-03-23T11:45:38;2.00;;;0.80;;
7479;SDS011;3781;42.272;22.658;2024-03-23T11:48:07;1.10;;;1.00;;
7479;SDS011;3781;42.272;22.658;2024-03-23T11:50:35;1.87;;;1.47;;
7479;SDS011;3781;42.272;22.658;2024-03-23T11:53:06;2.20;;;1.70;;
7479;SDS011;3781;42.272;22.658;2024-03-23T11:55:38;2.60;;;1.60;;
7479;SDS011;3781;42.272;22.658;2024-03-23T11:58:06;1.77;;;1.67;;
7479;SDS011;3781;42.272;22.658;2024-03-23T12:00:33;2.37;;;2.00;;
7479;SDS011;3781;42.272;22.658;2024-03-23T12:03:01;2.60;;;1.73;;
7479;SDS011;3781;42.272;22.658;2024-03-23T12:05:28;3.27;;;1.70;;
7479;SDS011;3781;42.272;22.658;2024-03-23T12:07:55;2.27;;;2.07;;
7479;SDS011;3781;42.272;22.658;2024-03-23T12:10:40;1.90;;;1.77;;
7479;SDS011;3781;42.272;22.658;2024-03-23T12:13:06;2.87;;;2.17;;
7479;SDS011;3781;42.272;22.658;2024-03-23T12:15:32;2.30;;;1.43;;
7479;SDS011;3781;42.272;22.658;2024-03-23T12:18:07;2.90;;;1.97;;
7479;SDS011;3781;42.272;22.658;2024-03-23T12:20:33;2.47;;;1.90;;
7479;SDS011;3781;42.272;22.658;2024-03-23T12:23:06;2.27;;;1.70;;
7479;SDS011;3781;42.272;22.658;2024-03-23T12:25:34;2.37;;;1.90;;
7479;SDS011;3781;42.272;22.658;2024-03-23T12:28:01;2.47;;;1.80;;
7479;SDS011;3781;42.272;22.658;2024-03-23T12:30:27;1.73;;;1.63;;
7479;SDS011;3781;42.272;22.658;2024-03-23T12:32:54;2.53;;;1.53;;
7479;SDS011;3781;42.272;22.658;2024-03-23T12:35:21;1.03;;;0.93;;
7479;SDS011;3781;42.272;22.658;2024-03-23T12:37:48;3.33;;;1.70;;
7479;SDS011;3781;42.272;22.658;2024-03-23T12:40:14;2.73;;;1.80;;
7479;SDS011;3781;42.272;22.658;2024-03-23T12:42:40;2.33;;;1.83;;
7479;SDS011;3781;42.272;22.658;2024-03-23T12:45:07;2.70;;;1.60;;
7479;SDS011;3781;42.272;22.658;2024-03-23T12:47:34;2.07;;;1.87;;
7479;SDS011;3781;42.272;22.658;2024-03-23T12:50:00;2.00;;;1.70;;
7479;SDS011;3781;42.272;22.658;2024-03-23T12:52:28;4.97;;;1.57;;
7479;SDS011;3781;42.272;22.658;2024-03-23T12:54:55;3.03;;;1.50;;
7479;SDS011;3781;42.272;22.658;2024-03-23T12:57:23;1.73;;;1.33;;
7479;SDS011;3781;42.272;22.658;2024-03-23T12:59:49;1.77;;;1.10;;
7479;SDS011;3781;42.272;22.658;2024-03-23T13:02:17;1.30;;;1.20;;
7479;SDS011;3781;42.272;22.658;2024-03-23T13:04:44;0.50;;;0.50;;
7479;SDS011;3781;42.272;22.658;2024-03-23T13:07:12;1.53;;;0.73;;
7479;SDS011;3781;42.272;22.658;2024-03-23T13:09:39;1.57;;;1.47;;
7479;SDS011;3781;42.272;22.658;2024-03-23T13:12:06;2.83;;;1.43;;
7479;SDS011;3781;42.272;22.658;2024-03-23T13:14:32;1.80;;;1.33;;
7479;SDS011;3781;42.272;22.658;2024-03-23T13:16:59;1.53;;;1.43;;
7479;SDS011;3781;42.272;22.658;2024-03-23T13:19:25;1.57;;;1.40;;
7479;SDS011;3781;42.272;22.658;2024-03-23T13:21:55;1.73;;;1.13;;
7479;SDS011;3781;42.272;22.658;2024-03-23T13:24:21;1.93;;;1.40;;
7479;SDS011;3781;42.272;22.658;2024-03-23T13:26:51;1.30;;;1.20;;
7479;SDS011;3781;42.272;22.658;2024-03-23T13:29:17;2.60;;;1.47;;
7479;SDS011;3781;42.272;22.658;2024-03-23T13:31:44;1.13;;;1.00;;
7479;SDS011;3781;42.272;22.658;2024-03-23T13:34:10;4.33;;;1.80;;
7479;SDS011;3781;42.272;22.658;2024-03-23T13:36:38;1.80;;;1.17;;
7479;SDS011;3781;42.272;22.658;2024-03-23T13:39:04;1.50;;;1.40;;
7479;SDS011;3781;42.272;22.658;2024-03-23T13:41:37;2.67;;;1.83;;
7479;SDS011;3781;42.272;22.658;2024-03-23T13:44:05;1.53;;;1.43;;
7479;SDS011;3781;42.272;22.658;2024-03-23T13:46:32;2.33;;;2.10;;
7479;SDS011;3781;42.272;22.658;2024-03-23T13:48:58;1.83;;;1.37;;
7479;SDS011;3781;42.272;22.658;2024-03-23T13:51:25;2.83;;;1.50;;
7479;SDS011;3781;42.272;22.658;2024-03-23T13:53:52;6.53;;;2.10;;
7479;SDS011;3781;42.272;22.658;2024-03-23T13:56:19;1.70;;;1.60;;
7479;SDS011;3781;42.272;22.658;2024-03-23T13:58:45;1.83;;;1.70;;
7479;SDS011;3781;42.272;22.658;2024-03-23T14:01:14;1.33;;;0.70;;
7479;SDS011;3781;42.272;22.658;2024-03-23T14:03:40;1.10;;;0.95;;
7479;SDS011;3781;42.272;22.658;2024-03-23T14:06:07;1.08;;;1.08;;
7479;SDS011;3781;42.272;22.658;2024-03-23T14:08:34;0.70;;;0.70;;
7479;SDS011;3781;42.272;22.658;2024-03-23T14:11:01;1.23;;;1.00;;
7479;SDS011;3781;42.272;22.658;2024-03-23T14:13:29;1.00;;;1.00;;
7479;SDS011;3781;42.272;22.658;2024-03-23T14:15:56;1.13;;;1.00;;
7479;SDS011;3781;42.272;22.658;2024-03-23T14:18:23;1.57;;;1.00;;
7479;SDS011;3781;42.272;22.658;2024-03-23T14:20:51;1.17;;;1.07;;
7479;SDS011;3781;42.272;22.658;2024-03-23T14:23:17;1.40;;;1.30;;
7479;SDS011;3781;42.272;22.658;2024-03-23T14:25:44;1.47;;;1.13;;
7479;SDS011;3781;42.272;22.658;2024-03-23T14:28:10;2.10;;;1.50;;
7479;SDS011;3781;42.272;22.658;2024-03-23T14:30:40;1.00;;;1.00;;
7479;SDS011;3781;42.272;22.658;2024-03-23T14:33:06;1.87;;;0.83;;
7479;SDS011;3781;42.272;22.658;2024-03-23T14:35:34;1.37;;;0.77;;
7479;SDS011;3781;42.272;22.658;2024-03-23T14:38:00;1.77;;;1.43;;
7479;SDS011;3781;42.272;22.658;2024-03-23T14:40:27;0.70;;;0.50;;
7479;SDS011;3781;42.272;22.658;2024-03-23T14:42:54;2.00;;;1.80;;
7479;SDS011;3781;42.272;22.658;2024-03-23T14:45:21;1.43;;;1.33;;
7479;SDS011;3781;42.272;22.658;2024-03-23T14:47:49;1.60;;;1.00;;
7479;SDS011;3781;42.272;22.658;2024-03-23T14:50:16;0.40;;;0.40;;
7479;SDS011;3781;42.272;22.658;2024-03-23T14:52:43;1.07;;;1.07;;
7479;SDS011;3781;42.272;22.658;2024-03-23T14:55:13;2.70;;;0.83;;
7479;SDS011;3781;42.272;22.658;2024-03-23T14:57:42;0.83;;;0.73;;
7479;SDS011;3781;42.272;22.658;2024-03-23T15:00:09;1.13;;;1.03;;
7479;SDS011;3781;42.272;22.658;2024-03-23T15:02:36;3.03;;;1.50;;
7479;SDS011;3781;42.272;22.658;2024-03-23T15:05:03;2.93;;;1.27;;
7479;SDS011;3781;42.272;22.658;2024-03-23T15:07:29;0.50;;;0.30;;
7479;SDS011;3781;42.272;22.658;2024-03-23T15:09:59;1.10;;;1.10;;
7479;SDS011;3781;42.272;22.658;2024-03-23T15:12:25;1.77;;;1.03;;
7479;SDS011;3781;42.272;22.658;2024-03-23T15:14:52;0.77;;;0.77;;
7479;SDS011;3781;42.272;22.658;2024-03-23T15:17:18;2.10;;;1.20;;
7479;SDS011;3781;42.272;22.658;2024-03-23T15:19:45;2.43;;;0.83;;
7479;SDS011;3781;42.272;22.658;2024-03-23T15:22:10;1.47;;;1.37;;
7479;SDS011;3781;42.272;22.658;2024-03-23T15:24:37;1.77;;;1.23;;
7479;SDS011;3781;42.272;22.658;2024-03-23T15:27:04;0.20;;;0.20;;
7479;SDS011;3781;42.272;22.658;2024-03-23T15:29:35;0.97;;;0.87;;
7479;SDS011;3781;42.272;22.658;2024-03-23T15:32:01;2.60;;;1.60;;
7479;SDS011;3781;42.272;22.658;2024-03-23T15:34:28;2.00;;;0.50;;
7479;SDS011;3781;42.272;22.658;2024-03-23T15:36:54;2.63;;;1.80;;
7479;SDS011;3781;42.272;22.658;2024-03-23T15:39:21;4.43;;;1.87;;
7479;SDS011;3781;42.272;22.658;2024-03-23T15:41:47;3.40;;;2.30;;
7479;SDS011;3781;42.272;22.658;2024-03-23T15:44:16;1.33;;;0.87;;
7479;SDS011;3781;42.272;22.658;2024-03-23T15:46:42;2.20;;;1.70;;
7479;SDS011;3781;42.272;22.658;2024-03-23T15:49:09;4.80;;;2.60;;
7479;SDS011;3781;42.272;22.658;2024-03-23T15:51:35;1.50;;;1.27;;
7479;SDS011;3781;42.272;22.658;2024-03-23T15:54:02;0.80;;;0.80;;
7479;SDS011;3781;42.272;22.658;2024-03-23T15:56:28;3.30;;;2.07;;